createdAt,value
2022-12-11T00:03:02.545Z,9.70
2022-12-11T00:06:10.598Z,9.00
2022-12-11T00:09:13.668Z,10.00
2022-12-11T00:12:17.263Z,9.30
2022-12-11T00:15:20.810Z,10.00
2022-12-11T00:18:23.956Z,10.50
2022-12-11T00:21:26.801Z,9.60
2022-12-11T00:24:29.575Z,9.70
2022-12-11T00:27:32.315Z,10.30
2022-12-11T00:30:38.398Z,13.00
2022-12-11T00:33:41.473Z,10.90
2022-12-11T00:36:44.310Z,11.00
2022-12-11T00:39:47.119Z,11.30
2022-12-11T00:42:49.983Z,10.50
2022-12-11T00:45:52.789Z,11.30
2022-12-11T00:48:55.793Z,11.70
2022-12-11T00:51:58.659Z,10.70
2022-12-11T00:55:01.454Z,10.40
2022-12-11T00:58:04.714Z,11.10
2022-12-11T01:01:22.016Z,10.50
2022-12-11T01:04:24.904Z,12.80
2022-12-11T01:07:27.689Z,11.40
2022-12-11T01:10:30.792Z,12.90
2022-12-11T01:13:34.098Z,12.30
2022-12-11T01:16:36.981Z,11.50
2022-12-11T01:19:49.213Z,10.60
2022-12-11T01:22:53.717Z,12.20
2022-12-11T01:25:56.487Z,12.20
2022-12-11T01:29:27.026Z,11.90
2022-12-11T01:32:29.761Z,12.20
2022-12-11T01:35:32.753Z,12.70
2022-12-11T01:38:35.726Z,10.80
2022-12-11T01:41:38.595Z,12.90
2022-12-11T01:44:41.342Z,11.60
2022-12-11T01:47:44.381Z,12.10
2022-12-11T01:51:05.098Z,11.70
2022-12-11T01:54:11.836Z,11.50
2022-12-11T01:57:16.429Z,11.10
2022-12-11T02:00:20.279Z,12.10
2022-12-11T02:03:23.256Z,12.40
2022-12-11T02:06:48.304Z,11.60
2022-12-11T02:09:51.203Z,13.20
2022-12-11T02:13:15.304Z,10.50
2022-12-11T02:16:37.338Z,11.70
2022-12-11T02:19:55.210Z,11.00
2022-12-11T02:23:13.409Z,12.30
2022-12-11T02:26:34.946Z,11.30
2022-12-11T02:29:48.337Z,9.60
2022-12-11T02:32:57.100Z,10.20
2022-12-11T02:39:06.071Z,10.10
2022-12-11T02:42:11.434Z,10.60
2022-12-11T02:45:15.296Z,10.90
2022-12-11T02:48:18.507Z,11.40
2022-12-11T02:51:27.655Z,10.90
2022-12-11T02:54:36.358Z,11.80
2022-12-11T02:57:53.235Z,10.70
2022-12-11T03:00:56.283Z,12.20
2022-12-11T03:04:25.317Z,11.30
2022-12-11T03:07:33.787Z,10.40
2022-12-11T03:10:36.595Z,9.30
2022-12-11T03:13:42.685Z,10.60
2022-12-11T03:17:05.265Z,10.80
2022-12-11T03:20:42.433Z,12.10
2022-12-11T03:24:11.321Z,10.20
2022-12-11T03:27:20.010Z,8.90
2022-12-11T03:30:25.204Z,9.80
2022-12-11T03:33:33.026Z,9.00
2022-12-11T03:36:39.397Z,11.00
2022-12-11T03:39:50.036Z,8.80
2022-12-11T03:42:57.017Z,9.30
2022-12-11T03:46:01.228Z,10.20
2022-12-11T03:49:20.957Z,9.90
2022-12-11T03:52:27.461Z,9.50
2022-12-11T03:55:32.467Z,10.50
2022-12-11T03:58:35.577Z,9.20
2022-12-11T04:01:38.429Z,9.30
2022-12-11T04:04:42.410Z,9.00
2022-12-11T04:07:45.299Z,9.50
2022-12-11T04:10:49.007Z,9.00
2022-12-11T04:14:11.942Z,8.30
2022-12-11T04:17:34.769Z,8.70
2022-12-11T04:20:56.094Z,10.10
2022-12-11T04:24:17.325Z,9.70
2022-12-11T04:27:38.656Z,9.40
2022-12-11T04:30:42.884Z,9.00
2022-12-11T04:33:47.991Z,9.00
2022-12-11T04:36:51.028Z,9.60
2022-12-11T04:39:54.132Z,9.20
2022-12-11T04:42:56.966Z,9.50
2022-12-11T04:46:07.495Z,9.70
2022-12-11T04:49:10.374Z,9.10
2022-12-11T04:52:14.324Z,8.20
2022-12-11T04:55:43.607Z,9.20
2022-12-11T04:58:47.001Z,9.50
2022-12-11T05:01:55.165Z,8.50
2022-12-11T05:04:58.299Z,11.40
2022-12-11T05:08:01.141Z,9.10
2022-12-11T05:11:06.867Z,8.40
2022-12-11T05:14:09.719Z,10.10
2022-12-11T05:17:12.624Z,10.80
2022-12-11T05:20:15.569Z,9.60
2022-12-11T05:23:18.370Z,9.80
2022-12-11T05:26:21.488Z,9.40
2022-12-11T05:29:24.278Z,8.60
2022-12-11T05:32:27.058Z,9.70
2022-12-11T05:35:29.845Z,10.00
2022-12-11T05:38:34.218Z,9.70
2022-12-11T05:41:37.049Z,8.80
2022-12-11T05:45:35.495Z,9.80
2022-12-11T05:48:38.981Z,8.30
2022-12-11T05:51:43.493Z,9.40
2022-12-11T05:54:49.665Z,11.30
2022-12-11T05:57:52.439Z,10.20
2022-12-11T06:00:55.189Z,8.50
2022-12-11T06:03:59.266Z,9.40
2022-12-11T06:07:02.070Z,9.70
2022-12-11T06:10:05.161Z,11.70
2022-12-11T06:13:07.969Z,11.90
2022-12-11T06:16:11.052Z,11.70
2022-12-11T06:19:15.483Z,10.70
2022-12-11T06:22:18.494Z,8.90
2022-12-11T06:25:21.246Z,11.20
2022-12-11T06:28:23.990Z,13.00
2022-12-11T06:31:27.326Z,10.50
2022-12-11T06:34:31.917Z,10.50
2022-12-11T06:37:36.366Z,10.60
2022-12-11T06:40:39.153Z,11.60
2022-12-11T06:43:43.135Z,10.90
2022-12-11T06:46:47.047Z,8.80
2022-12-11T06:49:49.822Z,10.50
2022-12-11T06:52:56.429Z,12.00
2022-12-11T06:56:08.212Z,10.70
2022-12-11T06:59:12.830Z,12.90
2022-12-11T07:02:20.321Z,13.00
2022-12-11T07:05:24.000Z,12.40
2022-12-11T07:08:29.094Z,11.70
2022-12-11T07:11:34.229Z,10.40
2022-12-11T07:14:37.148Z,12.10
2022-12-11T07:17:39.961Z,14.40
2022-12-11T07:20:42.772Z,12.60
2022-12-11T07:23:45.622Z,12.90
2022-12-11T07:26:48.413Z,10.90
2022-12-11T07:29:51.852Z,10.80
2022-12-11T07:32:54.687Z,12.30
2022-12-11T07:36:01.796Z,13.60
2022-12-11T07:39:04.633Z,11.00
2022-12-11T07:42:07.512Z,12.30
2022-12-11T07:45:10.853Z,11.30
2022-12-11T07:48:13.771Z,12.10
2022-12-11T07:51:28.637Z,12.10
2022-12-11T07:54:32.321Z,12.40
2022-12-11T07:57:36.366Z,11.70
2022-12-11T08:00:39.194Z,11.20
2022-12-11T08:03:42.618Z,10.60
2022-12-11T08:06:48.596Z,10.70
2022-12-11T08:09:51.380Z,12.20
2022-12-11T08:12:54.266Z,12.10
2022-12-11T08:15:57.165Z,11.20
2022-12-11T08:19:01.173Z,10.10
2022-12-11T08:22:04.186Z,11.70
2022-12-11T08:25:07.521Z,11.30
2022-12-11T08:28:10.333Z,11.80
2022-12-11T08:31:15.259Z,10.70
2022-12-11T08:34:45.113Z,11.30
2022-12-11T08:37:47.952Z,10.40
2022-12-11T08:45:29.778Z,9.40
2022-12-11T08:48:34.129Z,11.00
2022-12-11T08:51:36.996Z,10.30
2022-12-11T08:54:39.885Z,9.40
2022-12-11T08:57:42.715Z,10.30
2022-12-11T09:00:45.547Z,11.10
2022-12-11T09:03:49.329Z,8.70
2022-12-11T09:06:52.249Z,10.60
2022-12-11T09:09:56.799Z,11.20
2022-12-11T09:14:16.988Z,10.00
2022-12-11T09:17:19.994Z,9.50
2022-12-11T09:20:22.788Z,10.70
2022-12-11T09:23:25.866Z,10.30
2022-12-11T09:26:30.351Z,11.40
2022-12-11T09:29:33.166Z,9.90
2022-12-11T09:32:35.992Z,11.30
2022-12-11T09:35:38.820Z,10.20
2022-12-11T09:38:44.141Z,9.90
2022-12-11T09:41:55.611Z,9.30
2022-12-11T09:45:03.160Z,11.10
2022-12-11T09:48:07.987Z,11.40
2022-12-11T09:51:33.333Z,9.00
2022-12-11T09:54:37.010Z,9.20
2022-12-11T09:58:10.556Z,9.10
2022-12-11T10:01:13.391Z,10.10
2022-12-11T10:04:29.084Z,10.10
2022-12-11T10:08:20.927Z,9.60
2022-12-11T10:11:55.900Z,7.60
2022-12-11T10:15:30.722Z,7.90
2022-12-11T10:18:34.102Z,8.50
2022-12-11T10:22:03.146Z,9.20
2022-12-11T10:25:14.037Z,9.10
2022-12-11T10:28:20.474Z,8.80
2022-12-11T10:31:45.093Z,10.60
2022-12-11T10:34:54.875Z,9.40
2022-12-11T10:38:10.623Z,10.90
2022-12-11T10:41:21.432Z,9.90
2022-12-11T10:44:59.507Z,10.60
2022-12-11T10:48:13.404Z,9.70
2022-12-11T10:51:16.627Z,11.80
2022-12-11T10:54:43.630Z,10.20
2022-12-11T10:57:55.640Z,10.10
2022-12-11T11:01:14.290Z,8.70
2022-12-11T11:04:38.133Z,9.70
2022-12-11T11:07:41.541Z,9.30
2022-12-11T11:10:59.116Z,9.30
2022-12-11T11:14:07.536Z,9.00
2022-12-11T11:17:15.925Z,9.20
2022-12-11T11:20:21.949Z,8.90
2022-12-11T11:23:25.593Z,9.40
2022-12-11T11:27:04.283Z,9.50
2022-12-11T11:30:18.738Z,8.00
2022-12-11T11:33:23.278Z,8.30
2022-12-11T11:36:28.482Z,8.90
2022-12-11T11:39:45.314Z,8.30
2022-12-11T11:43:18.938Z,9.60
2022-12-11T11:46:49.531Z,8.90
2022-12-11T11:50:04.447Z,7.40
2022-12-11T11:53:27.289Z,8.50
2022-12-11T11:56:37.604Z,10.50
2022-12-11T11:59:53.506Z,9.00
2022-12-11T12:03:00.699Z,8.00
2022-12-11T12:06:26.485Z,8.90
2022-12-11T12:09:48.412Z,8.20
2022-12-11T12:13:30.432Z,8.90
2022-12-11T12:16:54.098Z,8.30
2022-12-11T12:20:23.213Z,7.30
2022-12-11T12:23:40.242Z,7.50
2022-12-11T12:26:57.013Z,7.30
2022-12-11T12:30:14.039Z,10.40
2022-12-11T12:33:44.667Z,9.10
2022-12-11T12:37:26.644Z,9.00
2022-12-11T12:40:37.957Z,8.00
2022-12-11T12:44:07.397Z,8.60
2022-12-11T12:47:15.317Z,7.40
2022-12-11T12:50:22.124Z,8.10
2022-12-11T12:53:28.965Z,8.10
2022-12-11T12:56:32.986Z,8.40
2022-12-11T12:59:51.590Z,9.10
2022-12-11T13:02:58.874Z,8.10
2022-12-11T13:06:04.945Z,8.50
2022-12-11T13:09:16.191Z,9.50
2022-12-11T13:12:32.711Z,8.40
2022-12-11T13:15:44.054Z,8.10
2022-12-11T13:18:48.548Z,8.00
2022-12-11T13:22:21.646Z,8.80
2022-12-11T13:25:28.988Z,8.50
2022-12-11T13:29:49.411Z,9.00
2022-12-11T13:33:03.677Z,7.70
2022-12-11T13:36:34.071Z,7.50
2022-12-11T13:39:39.584Z,8.60
2022-12-11T13:42:59.775Z,9.40
2022-12-11T13:46:10.836Z,7.60
2022-12-11T13:49:42.547Z,10.60
2022-12-11T13:52:57.300Z,8.80
2022-12-11T13:56:03.756Z,8.20
2022-12-11T13:59:20.524Z,8.80
2022-12-11T14:02:32.502Z,9.30
2022-12-11T14:05:35.799Z,8.80
2022-12-11T14:08:42.675Z,8.70
2022-12-11T14:11:49.905Z,9.40
2022-12-11T14:14:59.313Z,8.40
2022-12-11T14:18:02.276Z,8.20
2022-12-11T14:21:06.737Z,8.60
2022-12-11T14:24:14.370Z,8.90
2022-12-11T14:27:19.131Z,9.60
2022-12-11T14:30:28.255Z,7.60
2022-12-11T14:33:37.297Z,6.90
2022-12-11T14:36:42.040Z,6.50
2022-12-11T14:39:56.049Z,7.40
2022-12-11T14:43:03.951Z,7.20
2022-12-11T14:46:21.195Z,6.40
2022-12-11T14:49:43.301Z,6.80
2022-12-11T14:52:49.062Z,6.30
2022-12-11T14:55:53.189Z,8.90
2022-12-11T14:59:00.420Z,7.50
2022-12-11T15:02:46.195Z,7.20
2022-12-11T15:05:55.089Z,7.10
2022-12-11T15:12:15.063Z,6.20
2022-12-11T15:15:18.498Z,7.50
2022-12-11T15:18:29.319Z,8.40
2022-12-11T15:21:35.316Z,6.60
2022-12-11T15:24:43.762Z,7.20
2022-12-11T15:27:51.549Z,6.50
2022-12-11T15:31:02.714Z,6.80
2022-12-11T15:34:22.271Z,9.00
2022-12-11T15:37:36.315Z,8.30
2022-12-11T15:40:39.199Z,7.60
2022-12-11T15:43:43.750Z,6.70
2022-12-11T15:46:46.558Z,8.70
2022-12-11T15:50:22.543Z,8.60
2022-12-11T15:53:25.392Z,10.10
2022-12-11T15:56:28.181Z,8.30
2022-12-11T15:59:31.760Z,9.20
2022-12-11T16:02:34.584Z,8.70
2022-12-11T16:05:37.652Z,9.50
2022-12-11T16:08:40.435Z,9.80
2022-12-11T16:11:43.223Z,8.00
2022-12-11T16:14:46.427Z,8.10
2022-12-11T16:17:49.243Z,10.10
2022-12-11T16:20:52.421Z,11.00
2022-12-11T16:23:55.212Z,9.30
2022-12-11T16:26:58.073Z,12.50
2022-12-11T16:30:00.936Z,11.30
2022-12-11T16:33:11.740Z,13.40
2022-12-11T16:36:17.923Z,9.60
2022-12-11T16:39:20.729Z,10.30
2022-12-11T16:42:23.566Z,10.40
2022-12-11T16:45:27.096Z,9.00
2022-12-11T16:48:29.965Z,8.80
2022-12-11T16:51:32.834Z,8.90
2022-12-11T16:54:35.829Z,9.40
2022-12-11T16:57:39.201Z,11.50
2022-12-11T17:00:42.434Z,9.80
2022-12-11T17:03:45.300Z,11.30
2022-12-11T17:06:48.835Z,11.10
2022-12-11T17:09:51.797Z,11.70
2022-12-11T17:12:54.624Z,11.70
2022-12-11T17:15:57.539Z,10.40
2022-12-11T17:19:07.380Z,9.50
2022-12-11T17:22:10.214Z,9.60
2022-12-11T17:25:16.769Z,10.20
2022-12-11T17:28:19.733Z,11.20
2022-12-11T17:31:22.682Z,12.50
2022-12-11T17:34:25.508Z,12.30
2022-12-11T17:37:28.333Z,10.40
2022-12-11T17:40:31.229Z,9.80
2022-12-11T17:43:34.139Z,9.80
2022-12-11T17:46:37.037Z,9.90
2022-12-11T17:49:40.730Z,9.30
2022-12-11T17:52:44.424Z,9.90
2022-12-11T17:55:48.499Z,10.80
2022-12-11T17:58:51.653Z,10.40
2022-12-11T18:01:54.509Z,8.20
2022-12-11T18:04:57.332Z,9.20
2022-12-11T18:08:00.380Z,11.00
2022-12-11T18:11:11.791Z,10.10
2022-12-11T18:14:17.336Z,11.00
2022-12-11T18:17:20.905Z,10.20
2022-12-11T18:20:25.131Z,11.10
2022-12-11T18:23:28.040Z,11.30
2022-12-11T18:26:31.465Z,10.00
2022-12-11T18:29:34.962Z,10.10
2022-12-11T18:32:37.858Z,9.90
2022-12-11T18:35:41.542Z,9.70
2022-12-11T18:38:45.352Z,9.20
2022-12-11T18:42:03.514Z,11.00
2022-12-11T18:45:11.399Z,10.80
2022-12-11T18:48:15.442Z,9.60
2022-12-11T18:51:23.713Z,8.70
2022-12-11T18:54:26.554Z,9.00
2022-12-11T18:57:29.447Z,9.80
2022-12-11T19:00:32.375Z,10.10
2022-12-11T19:03:35.960Z,10.40
2022-12-11T19:06:39.343Z,9.70
2022-12-11T19:09:47.561Z,10.70
2022-12-11T19:12:50.868Z,8.80
2022-12-11T19:15:53.711Z,9.30
2022-12-11T19:19:02.412Z,9.90
2022-12-11T19:22:05.290Z,7.70
2022-12-11T19:25:08.560Z,9.10
2022-12-11T19:28:11.596Z,9.30
2022-12-11T19:31:17.677Z,9.20
2022-12-11T19:34:20.958Z,10.00
2022-12-11T19:37:23.958Z,10.20
2022-12-11T19:40:26.821Z,9.40
2022-12-11T19:43:29.689Z,9.30
2022-12-11T19:46:32.794Z,8.30
2022-12-11T19:49:35.672Z,9.40
2022-12-11T19:52:44.461Z,10.00
2022-12-11T19:55:53.435Z,9.90
2022-12-11T19:58:56.274Z,8.00
2022-12-11T20:01:59.155Z,9.70
2022-12-11T20:05:02.051Z,10.40
2022-12-11T20:08:35.339Z,8.70
2022-12-11T20:11:28.441Z,10.80
2022-12-11T20:14:31.303Z,8.20
2022-12-11T20:17:34.180Z,11.10
2022-12-11T20:20:37.420Z,9.00
2022-12-11T20:23:40.708Z,10.60
2022-12-11T20:26:43.572Z,10.60
2022-12-11T20:29:46.515Z,10.60
2022-12-11T20:32:50.710Z,9.40
2022-12-11T20:35:53.568Z,10.80
2022-12-11T20:38:59.400Z,8.50
2022-12-11T20:42:04.996Z,9.60
2022-12-11T20:45:08.778Z,10.50
2022-12-11T20:48:11.679Z,9.40
2022-12-11T20:51:20.989Z,10.10
2022-12-11T20:54:28.447Z,8.90
2022-12-11T20:57:32.702Z,10.40
2022-12-11T21:00:37.028Z,9.70
2022-12-11T21:03:42.103Z,9.40
2022-12-11T21:06:45.218Z,9.90
2022-12-11T21:09:48.173Z,9.30
2022-12-11T21:12:50.994Z,10.10
2022-12-11T21:15:56.908Z,9.90
2022-12-11T21:18:59.990Z,10.40
2022-12-11T21:22:04.020Z,10.70
2022-12-11T21:25:07.082Z,9.60
2022-12-11T21:28:09.863Z,9.50
2022-12-11T21:31:16.140Z,9.50
2022-12-11T21:34:25.375Z,10.40
2022-12-11T21:37:28.990Z,10.50
2022-12-11T21:40:31.875Z,10.00
2022-12-11T21:43:34.784Z,11.60
2022-12-11T21:46:37.734Z,11.10
2022-12-11T21:49:40.614Z,10.00
2022-12-11T21:52:43.483Z,10.70
2022-12-11T21:55:46.317Z,9.40
2022-12-11T21:58:51.485Z,10.10
2022-12-11T22:01:54.431Z,10.20
2022-12-11T22:05:00.863Z,10.20
2022-12-11T22:08:03.765Z,9.90
2022-12-11T22:11:06.903Z,10.20
2022-12-11T22:14:16.453Z,11.10
2022-12-11T22:17:19.477Z,9.40
2022-12-11T22:20:22.306Z,9.70
2022-12-11T22:23:25.222Z,10.60
2022-12-11T22:26:28.702Z,10.50
2022-12-11T22:29:31.686Z,9.80
2022-12-11T22:32:34.494Z,10.70
2022-12-11T22:35:37.777Z,11.10
2022-12-11T22:38:40.653Z,7.80
2022-12-11T22:41:43.506Z,9.20
2022-12-11T22:44:46.435Z,9.60
2022-12-11T22:47:50.914Z,10.40
2022-12-11T22:50:54.960Z,10.20
2022-12-11T22:53:58.205Z,9.80
2022-12-11T22:57:01.519Z,10.90
2022-12-11T23:00:12.132Z,9.80
2022-12-11T23:03:15.111Z,10.60
2022-12-11T23:06:21.426Z,9.40
2022-12-11T23:09:28.986Z,9.90
2022-12-11T23:12:31.750Z,9.70
2022-12-11T23:15:34.803Z,10.10
2022-12-11T23:18:37.914Z,10.80
2022-12-11T23:21:41.326Z,10.00
2022-12-11T23:24:44.338Z,10.30
2022-12-11T23:27:47.184Z,9.70
2022-12-11T23:30:50.568Z,10.60
2022-12-11T23:33:54.360Z,11.50
2022-12-11T23:36:57.151Z,10.40
2022-12-11T23:39:59.948Z,9.30
2022-12-11T23:43:02.792Z,11.20
2022-12-11T23:46:10.541Z,10.50
2022-12-11T23:49:13.497Z,10.50
2022-12-11T23:52:16.323Z,10.20
2022-12-11T23:55:21.532Z,11.30
2022-12-11T23:58:24.329Z,11.40
